sensor_id;sensor_type;location;lat;lon;timestamp;P1;durP1;ratioP1;P2;durP2;ratioP2
9334;SDS011;4706;41.844;26.082;2022-09-30T00:01:00;5.05;;;3.63;;
9334;SDS011;4706;41.844;26.082;2022-09-30T00:03:27;5.90;;;3.55;;
9334;SDS011;4706;41.844;26.082;2022-09-30T00:06:00;4.80;;;3.55;;
9334;SDS011;4706;41.844;26.082;2022-09-30T00:08:26;3.92;;;3.45;;
9334;SDS011;4706;41.844;26.082;2022-09-30T00:11:01;3.70;;;3.30;;
9334;SDS011;4706;41.844;26.082;2022-09-30T00:13:32;5.72;;;3.35;;
9334;SDS011;4706;41.844;26.082;2022-09-30T00:16:02;3.83;;;3.50;;
9334;SDS011;4706;41.844;26.082;2022-09-30T00:18:29;3.63;;;3.33;;
9334;SDS011;4706;41.844;26.082;2022-09-30T00:20:55;3.55;;;3.25;;
9334;SDS011;4706;41.844;26.082;2022-09-30T00:23:21;3.30;;;3.00;;
9334;SDS011;4706;41.844;26.082;2022-09-30T00:25:47;4.22;;;3.10;;
9334;SDS011;4706;41.844;26.082;2022-09-30T00:28:14;3.10;;;2.90;;
9334;SDS011;4706;41.844;26.082;2022-09-30T00:30:40;3.88;;;3.40;;
9334;SDS011;4706;41.844;26.082;2022-09-30T00:33:06;5.20;;;3.75;;
9334;SDS011;4706;41.844;26.082;2022-09-30T00:35:31;4.88;;;3.60;;
9334;SDS011;4706;41.844;26.082;2022-09-30T00:37:57;3.38;;;3.03;;
9334;SDS011;4706;41.844;26.082;2022-09-30T00:40:24;3.53;;;3.05;;
9334;SDS011;4706;41.844;26.082;2022-09-30T00:42:50;6.30;;;3.22;;
9334;SDS011;4706;41.844;26.082;2022-09-30T00:45:16;4.05;;;3.17;;
9334;SDS011;4706;41.844;26.082;2022-09-30T00:50:42;3.20;;;2.90;;
9334;SDS011;4706;41.844;26.082;2022-09-30T00:58:53;3.53;;;2.92;;
9334;SDS011;4706;41.844;26.082;2022-09-30T01:01:13;2.92;;;2.60;;
9334;SDS011;4706;41.844;26.082;2022-09-30T01:03:43;3.65;;;2.95;;
9334;SDS011;4706;41.844;26.082;2022-09-30T01:06:16;4.55;;;3.20;;
9334;SDS011;4706;41.844;26.082;2022-09-30T01:08:42;3.13;;;2.83;;
9334;SDS011;4706;41.844;26.082;2022-09-30T01:11:09;4.18;;;3.13;;
9334;SDS011;4706;41.844;26.082;2022-09-30T01:13:35;3.55;;;3.20;;
9334;SDS011;4706;41.844;26.082;2022-09-30T01:18:56;3.80;;;2.72;;
9334;SDS011;4706;41.844;26.082;2022-09-30T01:32:36;4.32;;;3.13;;
9334;SDS011;4706;41.844;26.082;2022-09-30T01:40:53;3.97;;;2.67;;
9334;SDS011;4706;41.844;26.082;2022-09-30T01:43:45;3.78;;;3.40;;
9334;SDS011;4706;41.844;26.082;2022-09-30T01:49:10;5.38;;;3.35;;
9334;SDS011;4706;41.844;26.082;2022-09-30T01:51:38;3.67;;;3.17;;
9334;SDS011;4706;41.844;26.082;2022-09-30T01:54:13;3.35;;;3.05;;
9334;SDS011;4706;41.844;26.082;2022-09-30T01:57:32;3.47;;;2.80;;
9334;SDS011;4706;41.844;26.082;2022-09-30T02:00:07;4.03;;;3.40;;
9334;SDS011;4706;41.844;26.082;2022-09-30T02:02:35;4.85;;;3.70;;
9334;SDS011;4706;41.844;26.082;2022-09-30T02:05:11;5.22;;;4.03;;
9334;SDS011;4706;41.844;26.082;2022-09-30T02:07:45;4.72;;;3.70;;
9334;SDS011;4706;41.844;26.082;2022-09-30T02:10:16;3.83;;;3.42;;
9334;SDS011;4706;41.844;26.082;2022-09-30T02:12:48;4.18;;;3.60;;
9334;SDS011;4706;41.844;26.082;2022-09-30T02:15:21;3.90;;;3.60;;
9334;SDS011;4706;41.844;26.082;2022-09-30T02:18:00;4.13;;;3.67;;
9334;SDS011;4706;41.844;26.082;2022-09-30T02:20:32;5.63;;;3.60;;
9334;SDS011;4706;41.844;26.082;2022-09-30T02:25:29;4.57;;;3.83;;
9334;SDS011;4706;41.844;26.082;2022-09-30T02:28:00;4.28;;;3.65;;
9334;SDS011;4706;41.844;26.082;2022-09-30T02:30:33;4.65;;;3.78;;
9334;SDS011;4706;41.844;26.082;2022-09-30T02:33:01;3.67;;;3.40;;
9334;SDS011;4706;41.844;26.082;2022-09-30T02:35:36;5.15;;;3.80;;
9334;SDS011;4706;41.844;26.082;2022-09-30T02:38:17;4.60;;;3.55;;
9334;SDS011;4706;41.844;26.082;2022-09-30T02:40:55;4.90;;;3.65;;
9334;SDS011;4706;41.844;26.082;2022-09-30T02:43:26;3.88;;;3.45;;
9334;SDS011;4706;41.844;26.082;2022-09-30T02:53:55;6.03;;;3.60;;
9334;SDS011;4706;41.844;26.082;2022-09-30T02:58:54;6.55;;;3.83;;
9334;SDS011;4706;41.844;26.082;2022-09-30T03:01:21;4.18;;;3.70;;
9334;SDS011;4706;41.844;26.082;2022-09-30T03:03:49;4.00;;;3.65;;
9334;SDS011;4706;41.844;26.082;2022-09-30T03:06:23;5.68;;;4.05;;
9334;SDS011;4706;41.844;26.082;2022-09-30T03:08:50;6.03;;;3.72;;
9334;SDS011;4706;41.844;26.082;2022-09-30T03:11:17;6.63;;;4.10;;
9334;SDS011;4706;41.844;26.082;2022-09-30T03:30:50;5.20;;;4.18;;
9334;SDS011;4706;41.844;26.082;2022-09-30T03:33:32;4.30;;;3.88;;
9334;SDS011;4706;41.844;26.082;2022-09-30T03:36:13;6.30;;;3.88;;
9334;SDS011;4706;41.844;26.082;2022-09-30T03:41:27;6.10;;;3.70;;
9334;SDS011;4706;41.844;26.082;2022-09-30T03:46:53;6.25;;;5.65;;
9334;SDS011;4706;41.844;26.082;2022-09-30T03:49:25;7.55;;;4.40;;
9334;SDS011;4706;41.844;26.082;2022-09-30T03:51:56;7.15;;;4.30;;
9334;SDS011;4706;41.844;26.082;2022-09-30T03:54:23;7.32;;;4.47;;
9334;SDS011;4706;41.844;26.082;2022-09-30T03:56:49;6.45;;;4.45;;
9334;SDS011;4706;41.844;26.082;2022-09-30T03:59:24;7.70;;;4.80;;
9334;SDS011;4706;41.844;26.082;2022-09-30T04:01:54;6.63;;;4.25;;
9334;SDS011;4706;41.844;26.082;2022-09-30T04:04:23;6.13;;;4.18;;
9334;SDS011;4706;41.844;26.082;2022-09-30T04:06:48;11.15;;;5.70;;
9334;SDS011;4706;41.844;26.082;2022-09-30T04:09:14;5.78;;;4.55;;
9334;SDS011;4706;41.844;26.082;2022-09-30T04:11:39;5.75;;;5.18;;
9334;SDS011;4706;41.844;26.082;2022-09-30T04:14:05;8.55;;;5.00;;
9334;SDS011;4706;41.844;26.082;2022-09-30T04:16:31;5.70;;;5.10;;
9334;SDS011;4706;41.844;26.082;2022-09-30T04:18:57;5.85;;;4.65;;
9334;SDS011;4706;41.844;26.082;2022-09-30T04:21:22;6.43;;;4.78;;
9334;SDS011;4706;41.844;26.082;2022-09-30T04:23:49;7.82;;;5.13;;
9334;SDS011;4706;41.844;26.082;2022-09-30T04:26:15;6.03;;;4.78;;
9334;SDS011;4706;41.844;26.082;2022-09-30T04:28:44;6.35;;;4.78;;
9334;SDS011;4706;41.844;26.082;2022-09-30T04:31:10;8.88;;;5.40;;
9334;SDS011;4706;41.844;26.082;2022-09-30T04:33:37;7.78;;;5.00;;
9334;SDS011;4706;41.844;26.082;2022-09-30T04:36:03;12.25;;;6.00;;
9334;SDS011;4706;41.844;26.082;2022-09-30T04:38:29;12.50;;;5.40;;
9334;SDS011;4706;41.844;26.082;2022-09-30T04:40:56;8.25;;;5.22;;
9334;SDS011;4706;41.844;26.082;2022-09-30T04:43:23;9.52;;;5.47;;
9334;SDS011;4706;41.844;26.082;2022-09-30T04:45:49;12.27;;;5.30;;
9334;SDS011;4706;41.844;26.082;2022-09-30T04:48:19;9.32;;;5.47;;
9334;SDS011;4706;41.844;26.082;2022-09-30T04:50:46;12.88;;;5.30;;
9334;SDS011;4706;41.844;26.082;2022-09-30T04:53:11;12.23;;;5.85;;
9334;SDS011;4706;41.844;26.082;2022-09-30T04:55:39;6.30;;;5.05;;
9334;SDS011;4706;41.844;26.082;2022-09-30T04:58:05;9.75;;;5.88;;
9334;SDS011;4706;41.844;26.082;2022-09-30T05:00:30;10.90;;;5.13;;
9334;SDS011;4706;41.844;26.082;2022-09-30T05:02:56;9.85;;;5.70;;
9334;SDS011;4706;41.844;26.082;2022-09-30T05:05:22;8.98;;;6.15;;
9334;SDS011;4706;41.844;26.082;2022-09-30T05:07:47;11.68;;;5.60;;
9334;SDS011;4706;41.844;26.082;2022-09-30T05:10:13;8.45;;;6.20;;
9334;SDS011;4706;41.844;26.082;2022-09-30T05:12:40;10.57;;;6.28;;
9334;SDS011;4706;41.844;26.082;2022-09-30T05:15:06;13.65;;;6.80;;
9334;SDS011;4706;41.844;26.082;2022-09-30T05:17:33;8.30;;;5.97;;
9334;SDS011;4706;41.844;26.082;2022-09-30T05:19:58;8.27;;;6.85;;
9334;SDS011;4706;41.844;26.082;2022-09-30T05:22:25;9.00;;;6.20;;
9334;SDS011;4706;41.844;26.082;2022-09-30T05:24:52;9.25;;;6.88;;
9334;SDS011;4706;41.844;26.082;2022-09-30T05:27:18;6.90;;;6.20;;
9334;SDS011;4706;41.844;26.082;2022-09-30T05:29:44;16.17;;;12.48;;
9334;SDS011;4706;41.844;26.082;2022-09-30T05:32:10;13.20;;;8.85;;
9334;SDS011;4706;41.844;26.082;2022-09-30T05:34:36;15.35;;;8.88;;
9334;SDS011;4706;41.844;26.082;2022-09-30T05:37:03;10.20;;;6.47;;
9334;SDS011;4706;41.844;26.082;2022-09-30T05:39:33;8.50;;;6.25;;
9334;SDS011;4706;41.844;26.082;2022-09-30T05:41:59;7.82;;;5.03;;
9334;SDS011;4706;41.844;26.082;2022-09-30T05:44:24;10.00;;;5.57;;
9334;SDS011;4706;41.844;26.082;2022-09-30T05:46:50;7.60;;;5.63;;
9334;SDS011;4706;41.844;26.082;2022-09-30T05:49:16;11.20;;;6.03;;
9334;SDS011;4706;41.844;26.082;2022-09-30T05:51:41;7.43;;;5.82;;
9334;SDS011;4706;41.844;26.082;2022-09-30T05:54:10;10.82;;;6.13;;
9334;SDS011;4706;41.844;26.082;2022-09-30T05:56:36;9.15;;;6.50;;
9334;SDS011;4706;41.844;26.082;2022-09-30T05:59:04;10.32;;;6.72;;
9334;SDS011;4706;41.844;26.082;2022-09-30T06:01:30;10.30;;;6.75;;
9334;SDS011;4706;41.844;26.082;2022-09-30T06:03:56;11.25;;;6.18;;
9334;SDS011;4706;41.844;26.082;2022-09-30T06:06:22;12.70;;;6.78;;
9334;SDS011;4706;41.844;26.082;2022-09-30T06:08:47;11.07;;;6.72;;
9334;SDS011;4706;41.844;26.082;2022-09-30T06:11:14;11.88;;;6.95;;
9334;SDS011;4706;41.844;26.082;2022-09-30T06:13:42;14.05;;;8.48;;
9334;SDS011;4706;41.844;26.082;2022-09-30T06:16:11;13.13;;;6.72;;
9334;SDS011;4706;41.844;26.082;2022-09-30T06:18:38;11.02;;;7.03;;
9334;SDS011;4706;41.844;26.082;2022-09-30T06:21:05;9.50;;;7.20;;
9334;SDS011;4706;41.844;26.082;2022-09-30T06:23:32;9.18;;;6.90;;
9334;SDS011;4706;41.844;26.082;2022-09-30T06:25:59;12.23;;;8.10;;
9334;SDS011;4706;41.844;26.082;2022-09-30T06:28:26;12.70;;;8.30;;
9334;SDS011;4706;41.844;26.082;2022-09-30T06:30:52;12.38;;;8.20;;
9334;SDS011;4706;41.844;26.082;2022-09-30T06:33:18;12.82;;;8.35;;
9334;SDS011;4706;41.844;26.082;2022-09-30T06:35:43;10.75;;;8.30;;
9334;SDS011;4706;41.844;26.082;2022-09-30T06:38:11;12.68;;;9.32;;
9334;SDS011;4706;41.844;26.082;2022-09-30T06:40:39;17.45;;;8.60;;
9334;SDS011;4706;41.844;26.082;2022-09-30T06:43:09;15.25;;;8.60;;
9334;SDS011;4706;41.844;26.082;2022-09-30T06:45:35;14.43;;;8.13;;
9334;SDS011;4706;41.844;26.082;2022-09-30T06:48:02;16.95;;;8.68;;
9334;SDS011;4706;41.844;26.082;2022-09-30T06:50:29;15.13;;;8.57;;
9334;SDS011;4706;41.844;26.082;2022-09-30T06:52:59;19.77;;;8.30;;
9334;SDS011;4706;41.844;26.082;2022-09-30T06:55:26;19.00;;;9.40;;
9334;SDS011;4706;41.844;26.082;2022-09-30T06:57:57;15.25;;;8.85;;
9334;SDS011;4706;41.844;26.082;2022-09-30T07:00:24;16.77;;;8.65;;
9334;SDS011;4706;41.844;26.082;2022-09-30T07:02:52;14.50;;;8.60;;
9334;SDS011;4706;41.844;26.082;2022-09-30T07:05:19;14.65;;;8.80;;
9334;SDS011;4706;41.844;26.082;2022-09-30T07:07:45;15.93;;;8.02;;
9334;SDS011;4706;41.844;26.082;2022-09-30T07:10:10;14.40;;;8.40;;
9334;SDS011;4706;41.844;26.082;2022-09-30T07:12:36;15.25;;;8.50;;
9334;SDS011;4706;41.844;26.082;2022-09-30T07:15:02;11.70;;;7.70;;
9334;SDS011;4706;41.844;26.082;2022-09-30T07:17:28;12.60;;;7.65;;
9334;SDS011;4706;41.844;26.082;2022-09-30T07:19:53;17.45;;;8.18;;
9334;SDS011;4706;41.844;26.082;2022-09-30T07:22:19;14.90;;;8.02;;
9334;SDS011;4706;41.844;26.082;2022-09-30T07:24:57;12.43;;;7.93;;
9334;SDS011;4706;41.844;26.082;2022-09-30T07:27:25;11.10;;;6.70;;
9334;SDS011;4706;41.844;26.082;2022-09-30T07:29:54;16.30;;;6.78;;
9334;SDS011;4706;41.844;26.082;2022-09-30T07:32:20;11.18;;;6.32;;
9334;SDS011;4706;41.844;26.082;2022-09-30T07:34:47;11.75;;;6.10;;
9334;SDS011;4706;41.844;26.082;2022-09-30T07:37:14;9.98;;;5.43;;
9334;SDS011;4706;41.844;26.082;2022-09-30T07:39:42;9.10;;;5.57;;
9334;SDS011;4706;41.844;26.082;2022-09-30T07:42:09;9.30;;;6.00;;
9334;SDS011;4706;41.844;26.082;2022-09-30T07:44:38;9.18;;;5.20;;
9334;SDS011;4706;41.844;26.082;2022-09-30T07:47:08;8.77;;;5.53;;
9334;SDS011;4706;41.844;26.082;2022-09-30T07:49:35;10.07;;;5.57;;
9334;SDS011;4706;41.844;26.082;2022-09-30T07:52:01;7.40;;;4.95;;
9334;SDS011;4706;41.844;26.082;2022-09-30T07:54:28;9.23;;;4.90;;
9334;SDS011;4706;41.844;26.082;2022-09-30T07:56:57;13.02;;;5.50;;
9334;SDS011;4706;41.844;26.082;2022-09-30T07:59:25;9.80;;;5.25;;
9334;SDS011;4706;41.844;26.082;2022-09-30T08:01:52;30.00;;;7.20;;
9334;SDS011;4706;41.844;26.082;2022-09-30T08:04:19;8.10;;;4.68;;
9334;SDS011;4706;41.844;26.082;2022-09-30T08:06:46;18.67;;;5.75;;
9334;SDS011;4706;41.844;26.082;2022-09-30T08:09:15;7.13;;;4.57;;
9334;SDS011;4706;41.844;26.082;2022-09-30T08:11:42;9.43;;;5.13;;
9334;SDS011;4706;41.844;26.082;2022-09-30T08:14:11;7.32;;;5.05;;
9334;SDS011;4706;41.844;26.082;2022-09-30T08:16:38;6.95;;;4.30;;
9334;SDS011;4706;41.844;26.082;2022-09-30T08:19:05;8.43;;;5.55;;
9334;SDS011;4706;41.844;26.082;2022-09-30T08:21:31;8.57;;;4.80;;
9334;SDS011;4706;41.844;26.082;2022-09-30T08:23:56;9.18;;;4.80;;
9334;SDS011;4706;41.844;26.082;2022-09-30T08:26:22;8.50;;;4.55;;
9334;SDS011;4706;41.844;26.082;2022-09-30T08:28:48;8.07;;;4.53;;
9334;SDS011;4706;41.844;26.082;2022-09-30T08:33:41;6.90;;;4.40;;
9334;SDS011;4706;41.844;26.082;2022-09-30T08:36:12;7.18;;;4.45;;
9334;SDS011;4706;41.844;26.082;2022-09-30T08:38:40;6.55;;;3.75;;
9334;SDS011;4706;41.844;26.082;2022-09-30T08:46:58;8.57;;;3.85;;
9334;SDS011;4706;41.844;26.082;2022-09-30T08:51:56;6.82;;;4.07;;
9334;SDS011;4706;41.844;26.082;2022-09-30T08:54:25;6.82;;;3.90;;
9334;SDS011;4706;41.844;26.082;2022-09-30T08:56:55;6.35;;;3.63;;
9334;SDS011;4706;41.844;26.082;2022-09-30T08:59:36;9.02;;;4.13;;
9334;SDS011;4706;41.844;26.082;2022-09-30T09:04:51;6.90;;;4.05;;
9334;SDS011;4706;41.844;26.082;2022-09-30T09:18:32;5.72;;;2.97;;
9334;SDS011;4706;41.844;26.082;2022-09-30T09:21:07;6.07;;;3.38;;
9334;SDS011;4706;41.844;26.082;2022-09-30T09:23:56;7.95;;;3.35;;
9334;SDS011;4706;41.844;26.082;2022-09-30T09:26:26;5.93;;;3.38;;
9334;SDS011;4706;41.844;26.082;2022-09-30T09:29:07;5.13;;;3.47;;
9334;SDS011;4706;41.844;26.082;2022-09-30T09:31:38;6.00;;;3.30;;
9334;SDS011;4706;41.844;26.082;2022-09-30T09:34:10;5.65;;;3.20;;
9334;SDS011;4706;41.844;26.082;2022-09-30T09:47:23;4.35;;;3.03;;
9334;SDS011;4706;41.844;26.082;2022-09-30T09:55:01;4.90;;;3.20;;
9334;SDS011;4706;41.844;26.082;2022-09-30T09:57:27;5.90;;;3.63;;
9334;SDS011;4706;41.844;26.082;2022-09-30T10:00:00;5.15;;;3.15;;
9334;SDS011;4706;41.844;26.082;2022-09-30T10:02:59;5.90;;;3.22;;
9334;SDS011;4706;41.844;26.082;2022-09-30T10:05:30;5.53;;;3.47;;
9334;SDS011;4706;41.844;26.082;2022-09-30T10:08:14;6.68;;;3.60;;
9334;SDS011;4706;41.844;26.082;2022-09-30T10:10:43;17.33;;;4.10;;
9334;SDS011;4706;41.844;26.082;2022-09-30T10:13:14;5.43;;;3.10;;
9334;SDS011;4706;41.844;26.082;2022-09-30T10:15:46;7.43;;;3.45;;
9334;SDS011;4706;41.844;26.082;2022-09-30T10:18:26;4.45;;;2.97;;
9334;SDS011;4706;41.844;26.082;2022-09-30T10:20:57;4.47;;;3.30;;
9334;SDS011;4706;41.844;26.082;2022-09-30T10:23:58;6.68;;;3.22;;
9334;SDS011;4706;41.844;26.082;2022-09-30T10:26:18;5.30;;;2.80;;
9334;SDS011;4706;41.844;26.082;2022-09-30T10:34:25;5.93;;;3.30;;
9334;SDS011;4706;41.844;26.082;2022-09-30T10:36:58;4.47;;;2.90;;
9334;SDS011;4706;41.844;26.082;2022-09-30T10:39:30;6.55;;;2.90;;
9334;SDS011;4706;41.844;26.082;2022-09-30T10:44:44;7.22;;;3.15;;
9334;SDS011;4706;41.844;26.082;2022-09-30T10:47:15;6.38;;;3.22;;
9334;SDS011;4706;41.844;26.082;2022-09-30T10:49:45;5.63;;;3.10;;
9334;SDS011;4706;41.844;26.082;2022-09-30T10:52:17;5.90;;;2.88;;
9334;SDS011;4706;41.844;26.082;2022-09-30T10:54:52;4.53;;;3.05;;
9334;SDS011;4706;41.844;26.082;2022-09-30T10:57:32;5.05;;;3.38;;
9334;SDS011;4706;41.844;26.082;2022-09-30T11:00:07;5.10;;;3.17;;
9334;SDS011;4706;41.844;26.082;2022-09-30T11:02:40;6.25;;;3.33;;
9334;SDS011;4706;41.844;26.082;2022-09-30T11:05:15;4.05;;;2.95;;
9334;SDS011;4706;41.844;26.082;2022-09-30T11:10:48;4.07;;;2.78;;
9334;SDS011;4706;41.844;26.082;2022-09-30T11:13:58;4.90;;;3.13;;
9334;SDS011;4706;41.844;26.082;2022-09-30T11:19:03;4.53;;;2.83;;
9334;SDS011;4706;41.844;26.082;2022-09-30T11:21:40;4.95;;;2.55;;
9334;SDS011;4706;41.844;26.082;2022-09-30T11:40:52;5.47;;;3.08;;
9334;SDS011;4706;41.844;26.082;2022-09-30T12:00:03;4.07;;;2.45;;
9334;SDS011;4706;41.844;26.082;2022-09-30T12:02:34;4.38;;;3.17;;
9334;SDS011;4706;41.844;26.082;2022-09-30T12:05:05;3.70;;;2.80;;
9334;SDS011;4706;41.844;26.082;2022-09-30T12:07:51;3.80;;;2.80;;
9334;SDS011;4706;41.844;26.082;2022-09-30T12:16:07;3.15;;;2.40;;
9334;SDS011;4706;41.844;26.082;2022-09-30T12:18:40;3.53;;;2.20;;
9334;SDS011;4706;41.844;26.082;2022-09-30T12:21:17;4.50;;;2.92;;
9334;SDS011;4706;41.844;26.082;2022-09-30T12:24:10;4.65;;;2.45;;
9334;SDS011;4706;41.844;26.082;2022-09-30T12:26:39;4.97;;;2.55;;
9334;SDS011;4706;41.844;26.082;2022-09-30T12:29:07;3.65;;;2.60;;
9334;SDS011;4706;41.844;26.082;2022-09-30T12:34:38;3.75;;;3.15;;
9334;SDS011;4706;41.844;26.082;2022-09-30T12:42:36;5.78;;;3.50;;
9334;SDS011;4706;41.844;26.082;2022-09-30T12:50:22;2.80;;;2.60;;
9334;SDS011;4706;41.844;26.082;2022-09-30T12:52:53;3.38;;;2.67;;
9334;SDS011;4706;41.844;26.082;2022-09-30T12:57:50;3.15;;;2.42;;
9334;SDS011;4706;41.844;26.082;2022-09-30T13:00:19;2.78;;;2.35;;
9334;SDS011;4706;41.844;26.082;2022-09-30T13:02:53;4.13;;;2.90;;
9334;SDS011;4706;41.844;26.082;2022-09-30T13:10:29;4.53;;;2.50;;
9334;SDS011;4706;41.844;26.082;2022-09-30T13:21:01;4.15;;;2.85;;
9334;SDS011;4706;41.844;26.082;2022-09-30T13:28:53;4.55;;;2.50;;
9334;SDS011;4706;41.844;26.082;2022-09-30T13:34:27;4.65;;;2.55;;
9334;SDS011;4706;41.844;26.082;2022-09-30T13:37:01;4.88;;;3.05;;
9334;SDS011;4706;41.844;26.082;2022-09-30T13:39:44;4.18;;;2.60;;
9334;SDS011;4706;41.844;26.082;2022-09-30T13:42:20;5.38;;;2.67;;
9334;SDS011;4706;41.844;26.082;2022-09-30T13:45:05;3.00;;;2.13;;
9334;SDS011;4706;41.844;26.082;2022-09-30T13:47:47;3.53;;;2.35;;
9334;SDS011;4706;41.844;26.082;2022-09-30T13:50:23;3.47;;;2.70;;
9334;SDS011;4706;41.844;26.082;2022-09-30T13:52:57;4.53;;;2.67;;
9334;SDS011;4706;41.844;26.082;2022-09-30T13:55:32;2.70;;;2.50;;
9334;SDS011;4706;41.844;26.082;2022-09-30T14:22:38;4.03;;;2.67;;
9334;SDS011;4706;41.844;26.082;2022-09-30T14:25:11;2.78;;;2.42;;
9334;SDS011;4706;41.844;26.082;2022-09-30T14:30:24;3.20;;;2.28;;
9334;SDS011;4706;41.844;26.082;2022-09-30T14:35:23;2.50;;;2.30;;
9334;SDS011;4706;41.844;26.082;2022-09-30T14:38:02;4.55;;;2.65;;
9334;SDS011;4706;41.844;26.082;2022-09-30T14:40:48;4.43;;;2.60;;
9334;SDS011;4706;41.844;26.082;2022-09-30T14:43:18;5.43;;;2.80;;
9334;SDS011;4706;41.844;26.082;2022-09-30T14:45:53;3.13;;;2.25;;
9334;SDS011;4706;41.844;26.082;2022-09-30T14:48:31;3.08;;;2.38;;
9334;SDS011;4706;41.844;26.082;2022-09-30T14:51:01;5.82;;;2.33;;
9334;SDS011;4706;41.844;26.082;2022-09-30T14:53:34;2.90;;;2.38;;
9334;SDS011;4706;41.844;26.082;2022-09-30T14:56:17;4.13;;;2.40;;
9334;SDS011;4706;41.844;26.082;2022-09-30T14:58:51;3.50;;;2.65;;
9334;SDS011;4706;41.844;26.082;2022-09-30T15:01:18;3.00;;;2.80;;
9334;SDS011;4706;41.844;26.082;2022-09-30T15:03:48;5.32;;;2.90;;
9334;SDS011;4706;41.844;26.082;2022-09-30T15:06:18;4.95;;;2.97;;
9334;SDS011;4706;41.844;26.082;2022-09-30T15:08:46;3.40;;;3.10;;
9334;SDS011;4706;41.844;26.082;2022-09-30T15:11:20;4.82;;;2.95;;
9334;SDS011;4706;41.844;26.082;2022-09-30T15:13:53;4.60;;;3.00;;
9334;SDS011;4706;41.844;26.082;2022-09-30T15:16:48;3.20;;;2.90;;
9334;SDS011;4706;41.844;26.082;2022-09-30T15:19:19;3.28;;;2.80;;
9334;SDS011;4706;41.844;26.082;2022-09-30T15:21:50;4.15;;;3.00;;
9334;SDS011;4706;41.844;26.082;2022-09-30T15:24:18;5.45;;;3.22;;
9334;SDS011;4706;41.844;26.082;2022-09-30T15:26:46;5.70;;;3.00;;
9334;SDS011;4706;41.844;26.082;2022-09-30T15:29:13;5.75;;;3.30;;
9334;SDS011;4706;41.844;26.082;2022-09-30T15:31:46;6.70;;;3.65;;
9334;SDS011;4706;41.844;26.082;2022-09-30T15:34:36;3.75;;;2.85;;
9334;SDS011;4706;41.844;26.082;2022-09-30T15:37:02;8.75;;;4.38;;
9334;SDS011;4706;41.844;26.082;2022-09-30T15:39:32;4.45;;;3.70;;
9334;SDS011;4706;41.844;26.082;2022-09-30T15:42:33;4.43;;;3.20;;
9334;SDS011;4706;41.844;26.082;2022-09-30T15:45:03;3.55;;;3.10;;
9334;SDS011;4706;41.844;26.082;2022-09-30T15:50:44;10.05;;;5.80;;
9334;SDS011;4706;41.844;26.082;2022-09-30T15:53:18;7.65;;;5.82;;
9334;SDS011;4706;41.844;26.082;2022-09-30T15:55:47;8.65;;;6.50;;
9334;SDS011;4706;41.844;26.082;2022-09-30T16:03:57;12.27;;;8.40;;
9334;SDS011;4706;41.844;26.082;2022-09-30T16:06:31;9.20;;;6.00;;
9334;SDS011;4706;41.844;26.082;2022-09-30T16:09:47;9.90;;;5.35;;
9334;SDS011;4706;41.844;26.082;2022-09-30T16:12:02;14.15;;;6.03;;
9334;SDS011;4706;41.844;26.082;2022-09-30T16:15:31;20.27;;;8.23;;
9334;SDS011;4706;41.844;26.082;2022-09-30T16:17:43;18.92;;;6.80;;
9334;SDS011;4706;41.844;26.082;2022-09-30T16:27:47;8.75;;;4.68;;
9334;SDS011;4706;41.844;26.082;2022-09-30T16:30:18;9.48;;;4.25;;
9334;SDS011;4706;41.844;26.082;2022-09-30T16:32:51;7.60;;;5.25;;
9334;SDS011;4706;41.844;26.082;2022-09-30T16:35:22;8.70;;;4.00;;
9334;SDS011;4706;41.844;26.082;2022-09-30T16:37:53;7.00;;;4.07;;
9334;SDS011;4706;41.844;26.082;2022-09-30T16:40:23;8.55;;;3.50;;
9334;SDS011;4706;41.844;26.082;2022-09-30T16:42:51;8.05;;;4.28;;
9334;SDS011;4706;41.844;26.082;2022-09-30T16:45:22;6.95;;;3.70;;
9334;SDS011;4706;41.844;26.082;2022-09-30T16:47:49;5.45;;;3.38;;
9334;SDS011;4706;41.844;26.082;2022-09-30T16:52:44;5.70;;;4.03;;
9334;SDS011;4706;41.844;26.082;2022-09-30T16:55:09;4.78;;;4.05;;
9334;SDS011;4706;41.844;26.082;2022-09-30T16:57:35;7.95;;;4.10;;
9334;SDS011;4706;41.844;26.082;2022-09-30T17:00:03;10.38;;;4.93;;
9334;SDS011;4706;41.844;26.082;2022-09-30T17:02:29;13.30;;;6.47;;
9334;SDS011;4706;41.844;26.082;2022-09-30T17:04:54;8.93;;;5.28;;
9334;SDS011;4706;41.844;26.082;2022-09-30T17:07:20;10.70;;;5.03;;
9334;SDS011;4706;41.844;26.082;2022-09-30T17:09:45;11.45;;;5.93;;
9334;SDS011;4706;41.844;26.082;2022-09-30T17:12:11;10.57;;;7.70;;
9334;SDS011;4706;41.844;26.082;2022-09-30T17:14:37;7.70;;;5.07;;
9334;SDS011;4706;41.844;26.082;2022-09-30T17:17:03;9.05;;;4.68;;
9334;SDS011;4706;41.844;26.082;2022-09-30T17:19:29;7.32;;;4.75;;
9334;SDS011;4706;41.844;26.082;2022-09-30T17:21:57;9.02;;;4.57;;
9334;SDS011;4706;41.844;26.082;2022-09-30T17:24:22;6.25;;;4.25;;
9334;SDS011;4706;41.844;26.082;2022-09-30T17:26:57;6.78;;;4.30;;
9334;SDS011;4706;41.844;26.082;2022-09-30T17:29:23;6.10;;;4.50;;
9334;SDS011;4706;41.844;26.082;2022-09-30T17:31:48;5.97;;;4.65;;
9334;SDS011;4706;41.844;26.082;2022-09-30T17:34:14;9.32;;;5.50;;
9334;SDS011;4706;41.844;26.082;2022-09-30T17:36:40;7.72;;;5.80;;
9334;SDS011;4706;41.844;26.082;2022-09-30T17:39:05;7.30;;;4.72;;
9334;SDS011;4706;41.844;26.082;2022-09-30T17:41:32;6.68;;;4.95;;
9334;SDS011;4706;41.844;26.082;2022-09-30T17:44:17;6.40;;;5.57;;
9334;SDS011;4706;41.844;26.082;2022-09-30T17:46:43;11.18;;;9.18;;
9334;SDS011;4706;41.844;26.082;2022-09-30T17:49:12;10.48;;;8.35;;
9334;SDS011;4706;41.844;26.082;2022-09-30T17:51:40;8.30;;;6.25;;
9334;SDS011;4706;41.844;26.082;2022-09-30T17:54:05;8.95;;;5.18;;
9334;SDS011;4706;41.844;26.082;2022-09-30T17:56:31;13.38;;;5.95;;
9334;SDS011;4706;41.844;26.082;2022-09-30T17:58:58;8.88;;;6.80;;
9334;SDS011;4706;41.844;26.082;2022-09-30T18:01:24;14.30;;;6.95;;
9334;SDS011;4706;41.844;26.082;2022-09-30T18:03:50;13.43;;;7.20;;
9334;SDS011;4706;41.844;26.082;2022-09-30T18:06:18;12.27;;;6.78;;
9334;SDS011;4706;41.844;26.082;2022-09-30T18:08:47;6.93;;;5.13;;
9334;SDS011;4706;41.844;26.082;2022-09-30T18:11:23;7.60;;;4.40;;
9334;SDS011;4706;41.844;26.082;2022-09-30T18:13:51;7.03;;;4.28;;
9334;SDS011;4706;41.844;26.082;2022-09-30T18:16:20;6.28;;;4.15;;
9334;SDS011;4706;41.844;26.082;2022-09-30T18:18:46;7.90;;;3.80;;
9334;SDS011;4706;41.844;26.082;2022-09-30T18:21:11;6.43;;;4.07;;
9334;SDS011;4706;41.844;26.082;2022-09-30T18:23:37;6.15;;;3.63;;
9334;SDS011;4706;41.844;26.082;2022-09-30T18:26:02;7.10;;;3.80;;
9334;SDS011;4706;41.844;26.082;2022-09-30T18:28:28;5.80;;;3.47;;
9334;SDS011;4706;41.844;26.082;2022-09-30T18:30:54;5.95;;;3.50;;
9334;SDS011;4706;41.844;26.082;2022-09-30T18:33:19;6.85;;;4.13;;
9334;SDS011;4706;41.844;26.082;2022-09-30T18:35:46;7.55;;;4.10;;
9334;SDS011;4706;41.844;26.082;2022-09-30T18:38:12;7.85;;;5.10;;
9334;SDS011;4706;41.844;26.082;2022-09-30T18:40:42;6.55;;;4.90;;
9334;SDS011;4706;41.844;26.082;2022-09-30T18:43:11;9.32;;;5.53;;
9334;SDS011;4706;41.844;26.082;2022-09-30T18:45:38;8.18;;;5.03;;
9334;SDS011;4706;41.844;26.082;2022-09-30T18:48:04;6.75;;;5.15;;
9334;SDS011;4706;41.844;26.082;2022-09-30T18:50:31;9.95;;;5.85;;
9334;SDS011;4706;41.844;26.082;2022-09-30T18:52:58;8.82;;;5.15;;
9334;SDS011;4706;41.844;26.082;2022-09-30T18:55:25;9.95;;;4.50;;
9334;SDS011;4706;41.844;26.082;2022-09-30T18:57:52;5.28;;;3.95;;
9334;SDS011;4706;41.844;26.082;2022-09-30T19:00:19;5.50;;;3.70;;
9334;SDS011;4706;41.844;26.082;2022-09-30T19:02:45;5.75;;;3.90;;
9334;SDS011;4706;41.844;26.082;2022-09-30T19:05:11;5.47;;;4.18;;
9334;SDS011;4706;41.844;26.082;2022-09-30T19:07:38;4.88;;;3.90;;
9334;SDS011;4706;41.844;26.082;2022-09-30T19:10:05;5.80;;;4.50;;
9334;SDS011;4706;41.844;26.082;2022-09-30T19:12:35;5.18;;;4.15;;
9334;SDS011;4706;41.844;26.082;2022-09-30T19:15:05;7.03;;;4.28;;
9334;SDS011;4706;41.844;26.082;2022-09-30T19:17:33;7.60;;;4.68;;
9334;SDS011;4706;41.844;26.082;2022-09-30T19:19:59;5.30;;;4.80;;
9334;SDS011;4706;41.844;26.082;2022-09-30T19:22:25;6.40;;;5.32;;